Time;durP1;ratioP1;P1;durP2;ratioP2;P2;SDS_P1;SDS_P2;PMS_P1;PMS_P2;Temp;Humidity;BMP_temperature;BMP_pressure;BME280_temperature;BME280_humidity;BME280_pressure;Samples;Min_cycle;Max_cycle;Signal;HPM_P1;HPM_P2
2023/10/07 00:01:31;;;;;;;9.87;5.00;;;;;;;15.49;100.00;102108.03;5276482;28;20020;-69
2023/10/07 00:04:05;;;;;;;11.63;5.13;;;;;;;15.52;100.00;102102.56;5276583;28;20482;-70
2023/10/07 00:06:38;;;;;;;8.90;4.53;;;;;;;15.47;100.00;102091.41;5277227;28;20031;-69
2023/10/07 00:09:10;;;;;;;12.63;4.20;;;;;;;15.47;100.00;102091.41;5276381;28;20110;-69
2023/10/07 00:11:46;;;;;;;9.50;3.90;;;;;;;15.44;100.00;102076.63;5272606;28;20036;-69
2023/10/07 00:14:17;;;;;;;9.67;4.13;;;;;;;15.46;100.00;102069.44;5269704;28;20498;-69
2023/10/07 00:16:50;;;;;;;12.00;4.50;;;;;;;15.52;100.00;102077.94;5276746;28;20056;-69
2023/10/07 00:19:21;;;;;;;10.87;4.93;;;;;;;15.51;100.00;102079.75;5276393;28;20029;-69
2023/10/07 00:21:58;;;;;;;10.43;3.90;;;;;;;15.37;100.00;102070.03;5262171;28;20493;-69
2023/10/07 00:24:36;;;;;;;9.83;4.10;;;;;;;15.43;100.00;102084.66;5277520;28;20495;-69
2023/10/07 00:27:26;;;;;;;9.43;4.20;;;;;;;15.40;100.00;102079.53;5276515;28;20048;-68
2023/10/07 00:30:00;;;;;;;14.47;4.30;;;;;;;15.46;100.00;102079.19;5275475;28;20025;-68
2023/10/07 00:32:32;;;;;;;10.50;3.90;;;;;;;15.41;100.00;102070.69;5269748;28;20021;-70
2023/10/07 00:35:06;;;;;;;7.53;4.37;;;;;;;15.42;100.00;102072.38;5270021;28;20115;-67
2023/10/07 00:37:43;;;;;;;7.32;4.68;;;;;;;15.50;100.00;102080.66;5262748;28;20042;-68
2023/10/07 00:40:24;;;;;;;10.23;4.10;;;;;;;15.39;100.00;102078.72;5275756;28;20013;-68
2023/10/07 00:42:56;;;;;;;9.67;4.97;;;;;;;15.43;100.00;102074.09;5267472;28;20108;-69
2023/10/07 00:45:30;;;;;;;12.67;4.87;;;;;;;15.40;100.00;102083.03;5269763;28;20020;-69
2023/10/07 00:48:05;;;;;;;11.43;4.50;;;;;;;15.39;100.00;102083.13;5275474;28;20399;-69
2023/10/07 00:50:38;;;;;;;10.27;4.67;;;;;;;15.35;100.00;102077.19;5273164;28;20490;-69
2023/10/07 00:53:12;;;;;;;11.07;5.27;;;;;;;15.37;100.00;102085.88;5263402;28;20107;-69
2023/10/07 00:55:46;;;;;;;6.80;4.23;;;;;;;15.37;100.00;102088.50;5275553;28;20039;-69
2023/10/07 00:58:26;;;;;;;12.93;5.82;;;;;;;15.33;100.00;102076.41;5273899;28;20432;-69
2023/10/07 01:01:01;;;;;;;12.10;5.90;;;;;;;15.33;100.00;102074.63;5262851;28;20066;-69
2023/10/07 01:03:47;;;;;;;10.77;5.20;;;;;;;15.28;100.00;102066.16;5261969;28;20523;-68
2023/10/07 01:06:31;;;;;;;15.60;5.40;;;;;;;15.31;100.00;102068.59;5260022;28;20028;-68
2023/10/07 01:09:14;;;;;;;10.60;5.80;;;;;;;15.37;100.00;102056.81;5262856;28;20035;-68
2023/10/07 01:11:50;;;;;;;12.33;5.33;;;;;;;14.93;100.00;101998.75;5246805;22;20531;-78
2023/10/07 01:14:28;;;;;;;11.97;5.53;;;;;;;15.16;100.00;102024.66;5227229;28;20083;-78
2023/10/07 01:17:00;;;;;;;11.73;5.57;;;;;;;15.16;100.00;102036.09;5206690;28;20041;-79
2023/10/07 01:19:43;;;;;;;14.80;5.57;;;;;;;15.14;100.00;102048.50;5212664;28;20037;-82
2023/10/07 01:22:21;;;;;;;13.37;6.90;;;;;;;14.78;100.00;101989.94;5234374;28;20039;-83
2023/10/07 01:24:56;;;;;;;12.53;5.57;;;;;;;14.80;100.00;102003.03;5226013;28;20307;-81
2023/10/07 01:30:13;;;;;;;11.90;5.73;;;;;;;14.92;100.00;102044.53;5231783;28;20040;-80
2023/10/07 01:33:01;;;;;;;9.53;5.30;;;;;;;14.76;100.00;101999.72;5215497;28;20022;-80
2023/10/07 01:35:39;;;;;;;13.63;6.03;;;;;;;14.73;100.00;102011.28;5214983;28;20475;-80
2023/10/07 01:38:17;;;;;;;11.43;5.70;;;;;;;14.81;100.00;102028.47;5223223;28;20079;-80
2023/10/07 01:43:24;;;;;;;13.75;6.50;;;;;;;14.95;100.00;102028.53;5237433;28;20032;-80
2023/10/07 01:45:56;;;;;;;12.83;7.30;;;;;;;15.00;100.00;102036.16;5214083;28;20017;-80
2023/10/07 01:48:28;;;;;;;14.77;6.03;;;;;;;14.65;100.00;101997.72;5214297;28;20036;-80
2023/10/07 01:51:02;;;;;;;14.70;7.40;;;;;;;14.60;100.00;101995.34;5214487;28;20025;-80
2023/10/07 01:53:33;;;;;;;14.50;7.97;;;;;;;14.82;100.00;102011.75;5214642;28;20834;-80
2023/10/07 01:56:06;;;;;;;19.47;7.43;;;;;;;15.01;100.00;102043.09;5207736;28;20049;-80
2023/10/07 02:02:06;;;;;;;13.23;6.60;;;;;;;14.80;100.00;102000.38;5231257;28;20037;-80
2023/10/07 02:04:38;;;;;;;15.73;8.13;;;;;;;14.78;100.00;102005.75;5232112;28;20106;-80
2023/10/07 02:07:09;;;;;;;14.90;6.90;;;;;;;15.13;100.00;102057.38;5214356;28;20377;-80
2023/10/07 02:09:42;;;;;;;14.57;7.77;;;;;;;15.03;100.00;102037.78;5213636;28;20065;-80
2023/10/07 02:12:18;;;;;;;15.60;8.73;;;;;;;14.91;100.00;102021.72;5214048;28;20493;-80
2023/10/07 02:14:49;;;;;;;14.20;7.73;;;;;;;14.89;100.00;102018.31;5230897;28;20449;-80
2023/10/07 02:17:25;;;;;;;16.83;8.27;;;;;;;14.72;100.00;101985.88;5231551;28;20032;-80
2023/10/07 02:20:09;;;;;;;20.47;9.00;;;;;;;15.15;100.00;102038.81;5232277;28;20101;-80
2023/10/07 02:22:44;;;;;;;14.03;8.73;;;;;;;15.24;100.00;102044.38;5200413;28;20392;-80
2023/10/07 02:25:21;;;;;;;25.13;10.27;;;;;;;14.88;100.00;101996.38;5232022;28;20036;-80
2023/10/07 02:27:54;;;;;;;15.07;9.33;;;;;;;15.09;100.00;102030.31;5218665;28;20136;-81
2023/10/07 02:30:25;;;;;;;18.37;9.80;;;;;;;14.90;100.00;101998.94;5213511;28;20053;-80
2023/10/07 02:33:01;;;;;;;15.87;9.37;;;;;;;15.02;100.00;102014.94;5214396;28;20056;-81
2023/10/07 02:35:36;;;;;;;19.23;10.27;;;;;;;15.18;100.00;102034.19;5214217;28;20071;-80
2023/10/07 02:38:10;;;;;;;21.90;11.17;;;;;;;15.14;100.00;102031.81;5232505;28;20022;-80
2023/10/07 02:41:06;;;;;;;17.57;10.67;;;;;;;14.94;100.00;101989.88;5213635;28;20127;-80
2023/10/07 02:43:35;;;;;;;17.42;11.02;;;;;;;15.03;100.00;102006.94;5230152;28;20044;-80
2023/10/07 02:46:22;;;;;;;19.77;10.43;;;;;;;15.15;100.00;102020.34;5231186;28;20025;-80
2023/10/07 02:49:03;;;;;;;16.07;10.77;;;;;;;15.17;100.00;102027.22;5214757;28;20025;-81
2023/10/07 02:51:39;;;;;;;19.13;11.40;;;;;;;15.31;100.00;102055.41;5214401;28;20037;-81
2023/10/07 02:56:56;;;;;;;16.47;11.90;;;;;;;15.15;100.00;102010.63;5218443;28;20071;-80
2023/10/07 02:59:30;;;;;;;22.53;11.20;;;;;;;15.08;100.00;102004.03;5199495;28;20049;-81
2023/10/07 03:02:13;;;;;;;17.20;11.93;;;;;;;15.32;100.00;102037.78;5231138;28;20530;-80
2023/10/07 03:05:12;;;;;;;17.23;11.90;;;;;;;15.11;100.00;101996.75;5231723;28;20033;-80
2023/10/07 03:07:49;;;;;;;20.10;11.53;;;;;;;15.27;100.00;102024.03;5214608;28;20163;-80
2023/10/07 03:10:37;;;;;;;21.60;13.37;;;;;;;15.17;100.00;102008.75;5213655;28;20046;-81
2023/10/07 03:13:08;;;;;;;20.20;12.90;;;;;;;15.44;100.00;102060.78;5231957;28;20022;-80
2023/10/07 03:15:46;;;;;;;22.07;13.27;;;;;;;15.13;100.00;101996.69;5212746;28;20140;-80
2023/10/07 03:18:21;;;;;;;20.50;13.27;;;;;;;15.43;100.00;102047.69;5234543;28;20121;-80
2023/10/07 03:21:11;;;;;;;19.07;12.07;;;;;;;15.29;100.00;102022.16;5235124;28;20033;-80
2023/10/07 03:23:46;;;;;;;22.67;13.43;;;;;;;15.16;100.00;102006.19;5217064;28;20053;-80
2023/10/07 03:26:18;;;;;;;22.90;13.43;;;;;;;15.29;100.00;102008.94;5232064;28;20029;-80
2023/10/07 03:28:53;;;;;;;26.07;13.20;;;;;;;15.36;100.00;102010.25;5211462;28;20496;-80
2023/10/07 03:31:34;;;;;;;20.13;13.40;;;;;;;15.10;100.00;101973.13;5210852;28;20071;-81
2023/10/07 03:34:12;;;;;;;18.47;13.07;;;;;;;15.54;100.00;102041.72;5235207;28;20014;-80
2023/10/07 03:37:14;;;;;;;21.13;14.07;;;;;;;15.27;100.00;102003.78;5218324;28;20084;-80
2023/10/07 03:42:25;;;;;;;24.73;13.97;;;;;;;15.23;100.00;101982.00;5235145;28;20061;-80
2023/10/07 03:44:56;;;;;;;20.17;13.67;;;;;;;15.36;100.00;101994.41;5234375;28;20025;-80
2023/10/07 03:47:32;;;;;;;24.63;15.20;;;;;;;15.35;100.00;101995.34;5221463;28;20088;-80
2023/10/07 03:50:20;;;;;;;27.87;16.67;;;;;;;15.47;100.00;102001.66;5208303;28;20768;-80
2023/10/07 03:52:51;;;;;;;24.67;15.73;;;;;;;15.37;100.00;101972.38;5217253;28;20154;-80
2023/10/07 03:55:23;;;;;;;26.57;16.23;;;;;;;15.34;100.00;101980.47;5217234;28;20443;-80
2023/10/07 03:57:55;;;;;;;24.13;16.37;;;;;;;15.56;100.00;102011.66;5235017;28;20100;-80
2023/10/07 04:00:33;;;;;;;24.43;15.07;;;;;;;15.58;100.00;102008.91;5233692;28;20028;-80
2023/10/07 04:03:08;;;;;;;21.20;15.63;;;;;;;15.70;100.00;102026.63;5234254;28;20022;-80
2023/10/07 04:05:45;;;;;;;;;;;;;;;16.08;100.00;102019.03;5217937;28;20025;-80
2023/10/07 04:08:18;;;;;;;22.03;15.50;;;;;;;15.51;100.00;101975.94;5216124;28;19955;-80
2023/10/07 04:10:54;;;;;;;23.40;15.03;;;;;;;15.51;100.00;101971.50;5206599;28;20069;-80
2023/10/07 04:13:28;;;;;;;23.83;15.00;;;;;;;15.45;100.00;101964.81;5227688;28;20026;-80
2023/10/07 04:15:59;;;;;;;23.75;16.95;;;;;;;15.45;100.00;101959.53;5232470;28;20018;-79
2023/10/07 04:18:34;;;;;;;22.07;15.83;;;;;;;15.56;100.00;101973.84;5216019;28;20519;-80
2023/10/07 04:21:13;;;;;;;23.27;15.47;;;;;;;15.53;100.00;101966.13;5210904;28;20037;-81
2023/10/07 04:23:45;;;;;;;19.87;14.03;;;;;;;15.65;100.00;101999.69;5232141;28;20045;-80
2023/10/07 04:27:42;;;;;;;27.13;13.97;;;;;;;15.90;100.00;102027.16;5226562;28;20628;-80
2023/10/07 04:29:51;;;;;;;20.17;13.87;;;;;;;15.58;100.00;101979.88;5208795;28;20473;-80
2023/10/07 04:32:23;;;;;;;;;;;;;;;16.17;100.00;102021.06;5204635;28;20024;-80
2023/10/07 04:35:16;;;;;;;20.33;13.50;;;;;;;15.48;100.00;101961.97;5234153;28;20412;-81
2023/10/07 04:37:51;;;;;;;24.17;13.93;;;;;;;15.70;100.00;101996.72;5234922;28;20017;-81
2023/10/07 04:43:25;;;;;;;19.03;13.27;;;;;;;15.78;100.00;102025.31;5232152;28;20021;-81
2023/10/07 04:45:53;;;;;;;15.30;12.60;;;;;;;15.70;100.00;102016.06;5234500;28;20508;-80
2023/10/07 04:48:31;;;;;;;22.67;14.13;;;;;;;15.65;100.00;102001.47;5234524;28;20048;-80
2023/10/07 04:51:03;;;;;;;21.33;12.87;;;;;;;15.65;100.00;102004.97;5215435;28;20057;-80
2023/10/07 04:53:39;;;;;;;18.10;12.60;;;;;;;15.68;100.00;102007.41;5235284;28;20472;-82
2023/10/07 04:56:20;;;;;;;25.00;13.07;;;;;;;15.52;100.00;101998.72;5216626;28;20047;-82
2023/10/07 04:58:53;;;;;;;25.53;13.27;;;;;;;15.50;100.00;101980.34;5232512;28;20026;-81
2023/10/07 05:01:31;;;;;;;20.10;11.27;;;;;;;15.66;100.00;102006.63;5230216;28;20029;-81
2023/10/07 05:04:10;;;;;;;22.13;11.93;;;;;;;15.72;100.00;102011.56;5234292;28;20068;-82
2023/10/07 05:06:43;;;;;;;17.73;11.00;;;;;;;15.46;100.00;101979.69;5231207;28;20053;-82
2023/10/07 05:09:18;;;;;;;19.43;12.40;;;;;;;15.48;100.00;101979.63;5204300;28;20029;-80
2023/10/07 05:11:49;;;;;;;16.13;10.70;;;;;;;15.45;100.00;101979.78;5212415;28;20041;-80
2023/10/07 05:14:25;;;;;;;16.53;11.33;;;;;;;15.43;100.00;101963.22;5214047;28;20030;-79
2023/10/07 05:16:58;;;;;;;20.87;11.27;;;;;;;15.68;100.00;102007.41;5229193;28;20029;-80
2023/10/07 05:19:32;;;;;;;18.77;11.35;;;;;;;15.68;100.00;102011.81;5213747;28;20049;-80
2023/10/07 05:22:16;;;;;;;16.42;8.95;;;;;;;15.73;100.00;102015.88;5213707;28;20532;-80
2023/10/07 05:24:55;;;;;;;16.17;11.23;;;;;;;15.62;100.00;101999.00;5215303;28;20036;-80
2023/10/07 05:27:27;;;;;;;19.17;10.90;;;;;;;15.72;100.00;102014.19;5229926;28;20025;-80
2023/10/07 05:29:58;;;;;;;15.03;9.57;;;;;;;15.66;100.00;102001.34;5213015;28;20056;-80
2023/10/07 05:32:35;;;;;;;17.50;10.43;;;;;;;15.81;100.00;102014.53;5232050;28;20140;-80
2023/10/07 05:35:08;;;;;;;19.90;10.30;;;;;;;15.54;100.00;101959.88;5207860;28;20408;-80
2023/10/07 05:37:39;;;;;;;21.40;10.87;;;;;;;15.59;100.00;101965.72;5231205;28;20749;-81
2023/10/07 05:40:15;;;;;;;15.53;9.77;;;;;;;15.56;100.00;101950.94;5215398;28;20029;-81
2023/10/07 05:42:49;;;;;;;16.37;10.00;;;;;;;15.70;100.00;101980.88;5214968;28;20030;-80
2023/10/07 05:45:20;;;;;;;18.67;9.88;;;;;;;15.77;100.00;101995.41;5228019;28;20061;-81
2023/10/07 05:47:54;;;;;;;18.23;9.23;;;;;;;15.75;100.00;101993.78;5215298;28;20461;-80
2023/10/07 05:50:27;;;;;;;22.20;10.90;;;;;;;15.92;100.00;102019.97;5223847;28;20059;-80
2023/10/07 05:53:04;;;;;;;14.87;8.90;;;;;;;16.01;100.00;102030.94;5214421;28;20028;-81
2023/10/07 05:55:36;;;;;;;14.93;10.27;;;;;;;15.94;100.00;102035.72;5232766;28;20401;-81
2023/10/07 05:58:07;;;;;;;19.57;10.33;;;;;;;15.87;100.00;102016.78;5230389;28;20028;-80
2023/10/07 06:00:40;;;;;;;21.50;10.20;;;;;;;15.87;100.00;102013.28;5214530;28;20036;-81
2023/10/07 06:03:12;;;;;;;17.97;10.33;;;;;;;15.77;100.00;101991.91;5226162;28;20021;-80
2023/10/07 06:05:43;;;;;;;20.67;8.67;;;;;;;15.99;100.00;102043.38;5232380;28;20049;-81
2023/10/07 06:08:15;;;;;;;15.83;9.23;;;;;;;15.60;100.00;101980.63;5232552;28;20025;-80
2023/10/07 06:10:56;;;;;;;16.27;8.80;;;;;;;16.12;100.00;102038.16;5230246;28;20045;-81
2023/10/07 06:13:28;;;;;;;17.30;9.40;;;;;;;15.70;100.00;101981.75;5230362;28;20029;-80
2023/10/07 06:16:04;;;;;;;18.23;9.20;;;;;;;15.72;100.00;101986.94;5213164;28;20029;-81
2023/10/07 06:18:39;;;;;;;20.60;9.20;;;;;;;15.66;100.00;101979.38;5211338;28;20032;-80
2023/10/07 06:21:29;;;;;;;17.10;9.23;;;;;;;15.68;100.00;101983.63;5230179;28;20024;-81
2023/10/07 06:24:04;;;;;;;18.73;9.63;;;;;;;15.77;100.00;101991.91;5205149;28;20032;-81
2023/10/07 06:26:36;;;;;;;16.83;10.20;;;;;;;15.95;100.00;102011.84;5222114;28;20022;-81
2023/10/07 06:29:18;;;;;;;15.27;9.27;;;;;;;15.92;100.00;102017.34;5225379;28;20041;-81
2023/10/07 06:31:55;;;;;;;18.53;8.47;;;;;;;15.95;100.00;102032.16;5225275;28;20029;-81
2023/10/07 06:34:26;;;;;;;17.00;8.57;;;;;;;15.90;100.00;102029.78;5228730;28;20029;-80
2023/10/07 06:36:59;;;;;;;21.67;8.40;;;;;;;15.95;100.00;102053.28;5231308;28;20030;-81
2023/10/07 06:39:33;;;;;;;17.33;8.97;;;;;;;15.97;100.00;102046.09;5222119;28;20033;-81
2023/10/07 06:42:07;;;;;;;17.75;8.15;;;;;;;16.08;100.00;102070.09;5231473;28;20068;-81
2023/10/07 06:44:40;;;;;;;18.17;9.00;;;;;;;16.05;100.00;102049.16;5230761;28;20029;-81
2023/10/07 06:47:12;;;;;;;15.13;8.60;;;;;;;15.91;100.00;102030.66;5231572;28;20025;-81
2023/10/07 06:49:43;;;;;;;15.87;8.40;;;;;;;15.96;100.00;102034.69;5211699;28;20028;-81
2023/10/07 06:52:20;;;;;;;20.80;9.13;;;;;;;15.76;100.00;102006.06;5231043;28;20036;-81
2023/10/07 06:54:54;;;;;;;16.77;8.53;;;;;;;15.99;100.00;102051.31;5209742;28;20018;-81
2023/10/07 06:57:28;;;;;;;13.93;7.85;;;;;;;16.14;100.00;102073.28;5231096;28;20354;-81
2023/10/07 07:00:09;;;;;;;;;;;;;;;16.50;100.00;102069.19;5231210;28;20030;-80
2023/10/07 07:02:43;;;;;;;13.27;7.83;;;;;;;15.83;100.00;102023.22;5223621;28;19924;-81
2023/10/07 07:05:16;;;;;;;15.57;8.30;;;;;;;16.19;100.00;102084.41;5203768;28;20346;-81
2023/10/07 07:07:52;;;;;;;17.07;8.47;;;;;;;16.18;100.00;102075.63;5232415;28;20024;-82
2023/10/07 07:10:27;;;;;;;18.63;8.67;;;;;;;16.06;100.00;102042.03;5232182;28;20091;-82
2023/10/07 07:13:04;;;;;;;16.47;8.47;;;;;;;15.99;100.00;102027.53;5214486;28;20022;-82
2023/10/07 07:15:41;;;;;;;13.53;7.87;;;;;;;16.16;100.00;102055.53;5210013;28;20033;-83
2023/10/07 07:20:49;;;;;;;16.77;7.70;;;;;;;16.30;100.00;102070.50;5232629;28;20362;-82
2023/10/07 07:23:36;;;;;;;12.97;8.03;;;;;;;16.19;100.00;102045.63;5232853;28;20026;-82
2023/10/07 07:26:18;;;;;;;14.13;7.10;;;;;;;16.32;100.00;102055.38;5231946;28;20030;-82
2023/10/07 07:28:55;;;;;;;15.67;7.57;;;;;;;16.11;100.00;102026.75;5216722;28;20018;-83
2023/10/07 07:31:33;;;;;;;16.33;8.00;;;;;;;16.21;100.00;102046.34;5223767;28;20024;-82
2023/10/07 07:34:19;;;;;;;18.67;7.10;;;;;;;16.41;100.00;102053.91;5215473;28;20021;-83
2023/10/07 07:36:59;;;;;;;11.90;6.77;;;;;;;16.52;100.00;102087.59;5225814;28;20056;-82
2023/10/07 07:39:35;;;;;;;15.67;7.53;;;;;;;16.53;100.00;102070.78;5215523;28;20028;-83
2023/10/07 07:42:18;;;;;;;17.63;7.63;;;;;;;16.45;100.00;102061.56;5214913;28;20021;-83
2023/10/07 07:44:56;;;;;;;14.57;8.00;;;;;;;16.39;100.00;102046.09;5232425;28;20432;-83
2023/10/07 07:47:31;;;;;;;10.87;7.37;;;;;;;16.80;100.00;102097.22;5208812;28;20021;-83
2023/10/07 07:50:06;;;;;;;14.07;7.60;;;;;;;16.69;100.00;102047.66;5232053;28;20775;-81
2023/10/07 07:52:39;;;;;;;12.87;6.40;;;;;;;16.92;100.00;102063.78;5207412;28;20585;-80
2023/10/07 07:55:15;;;;;;;15.20;7.63;;;;;;;16.93;100.00;102051.41;5212157;28;20731;-79
2023/10/07 07:57:47;;;;;;;14.80;6.63;;;;;;;16.83;100.00;102031.78;5222710;28;20264;-81
2023/10/07 08:00:21;;;;;;;11.40;6.67;;;;;;;16.95;100.00;102035.44;5227495;28;20033;-80
2023/10/07 08:02:55;;;;;;;12.07;7.03;;;;;;;17.27;100.00;102096.78;5230674;28;20103;-80
2023/10/07 08:05:33;;;;;;;17.52;8.07;;;;;;;17.25;100.00;102073.97;5202035;28;20033;-81
2023/10/07 08:08:18;;;;;;;13.53;7.27;;;;;;;17.63;100.00;102096.94;5238417;28;20030;-81
2023/10/07 08:10:49;;;;;;;12.55;7.10;;;;;;;17.81;100.00;102075.41;5228129;28;20034;-80
2023/10/07 08:13:29;;;;;;;15.63;7.53;;;;;;;18.12;100.00;102082.94;5238794;28;20021;-81
2023/10/07 08:16:15;;;;;;;13.93;7.67;;;;;;;18.67;100.00;102082.53;5219520;28;20109;-83
2023/10/07 08:18:54;;;;;;;11.37;6.63;;;;;;;19.02;100.00;102061.38;5223536;28;20045;-83
2023/10/07 08:21:28;;;;;;;10.13;5.50;;;;;;;19.90;100.00;102080.22;5219848;28;20027;-83
2023/10/07 08:24:02;;;;;;;10.17;5.40;;;;;;;20.24;100.00;102068.72;5235666;28;20020;-84
2023/10/07 08:26:41;;;;;;;12.15;5.53;;;;;;;21.03;100.00;102119.88;5236417;28;20037;-83
2023/10/07 08:29:30;;;;;;;12.00;5.57;;;;;;;21.45;100.00;102086.16;5216971;28;20021;-83
2023/10/07 08:32:48;;;;;;;12.73;6.18;;;;;;;21.91;100.00;102093.78;5236591;28;20024;-83
2023/10/07 08:34:59;;;;;;;10.18;5.47;;;;;;;21.82;100.00;102108.78;5217423;28;20681;-82
2023/10/07 08:37:34;;;;;;;12.15;5.88;;;;;;;21.94;100.00;102101.50;5236597;28;20069;-82
2023/10/07 08:40:14;;;;;;;10.68;5.55;;;;;;;22.35;100.00;102072.09;5235269;28;20052;-82
2023/10/07 08:42:47;;;;;;;12.43;6.13;;;;;;;22.70;100.00;102047.63;5234211;28;20037;-82
2023/10/07 08:45:23;;;;;;;14.33;6.00;;;;;;;23.10;100.00;102059.06;5234298;28;20548;-81
2023/10/07 08:48:38;;;;;;;11.40;5.05;;;;;;;24.19;100.00;102095.97;5217108;28;20053;-81
2023/10/07 08:51:10;;;;;;;10.70;5.70;;;;;;;24.22;100.00;102063.56;5230665;28;20463;-83
2023/10/07 08:54:05;;;;;;;14.38;5.82;;;;;;;25.07;100.00;102090.81;5209642;28;20030;-82
2023/10/07 08:56:38;;;;;;;16.95;5.65;;;;;;;25.11;100.00;102105.59;5228055;28;20024;-79
2023/10/07 08:59:12;;;;;;;11.48;5.20;;;;;;;25.97;100.00;102098.56;5222002;28;20370;-80
2023/10/07 09:01:47;;;;;;;12.60;5.03;;;;;;;26.02;100.00;102098.91;5228083;28;20033;-79
2023/10/07 09:04:18;;;;;;;9.32;5.10;;;;;;;26.19;100.00;102094.41;5231799;28;20056;-80
2023/10/07 09:06:50;;;;;;;8.13;4.72;;;;;;;26.30;100.00;102076.28;5232515;28;20029;-79
2023/10/07 09:09:38;;;;;;;9.90;5.57;;;;;;;26.98;100.00;102105.66;5232405;28;20503;-80
2023/10/07 09:12:30;;;;;;;13.48;5.38;;;;;;;27.11;100.00;102104.28;5231702;28;20112;-78
2023/10/07 09:15:12;;;;;;;10.13;4.45;;;;;;;27.44;99.34;102088.03;5218733;28;20615;-79
2023/10/07 09:17:45;;;;;;;8.70;4.72;;;;;;;28.24;91.44;102098.66;5232944;28;20040;-79
2023/10/07 09:20:29;;;;;;;11.93;5.63;;;;;;;28.00;82.37;102079.00;5228500;28;20029;-79
2023/10/07 09:23:14;;;;;;;11.23;4.93;;;;;;;28.26;78.63;102058.09;5212796;28;20052;-78
2023/10/07 09:25:50;;;;;;;13.18;4.90;;;;;;;28.79;74.32;102068.06;5230644;28;20037;-78
2023/10/07 09:28:35;;;;;;;11.38;4.78;;;;;;;29.07;62.83;102042.34;5226634;28;20495;-78
2023/10/07 09:31:10;;;;;;;11.70;5.10;;;;;;;29.11;59.63;102060.66;5207890;28;20087;-79
2023/10/07 09:33:45;;;;;;;12.43;4.65;;;;;;;29.46;55.02;102075.41;5228143;28;20033;-79
2023/10/07 09:41:46;;;;;;;12.10;4.80;;;;;;;30.08;43.70;102058.81;5228110;28;20068;-78
2023/10/07 09:44:27;;;;;;;9.95;4.75;;;;;;;30.23;42.94;102033.66;5229853;28;20029;-78
2023/10/07 09:47:10;;;;;;;10.80;4.40;;;;;;;30.49;41.33;102053.78;5231260;28;20017;-78
2023/10/07 09:49:44;;;;;;;9.88;4.35;;;;;;;30.50;41.41;102061.69;5231453;28;20076;-78
2023/10/07 09:52:28;;;;;;;11.07;4.57;;;;;;;29.86;42.60;102034.56;5213634;28;20036;-78
2023/10/07 09:55:23;;;;;;;10.73;4.55;;;;;;;30.78;40.83;102100.56;5213498;28;20033;-79
2023/10/07 09:58:09;;;;;;;13.02;5.25;;;;;;;30.82;42.10;102080.22;5211453;28;20164;-79
2023/10/07 10:01:04;;;;;;;8.73;4.13;;;;;;;30.40;41.45;102050.41;5214567;28;20021;-79
2023/10/07 10:04:03;;;;;;;10.13;4.45;;;;;;;29.92;43.84;102049.13;5231181;28;20083;-79
2023/10/07 10:07:15;;;;;;;10.13;4.25;;;;;;;29.53;43.74;102059.28;5230790;28;20065;-79
2023/10/07 10:13:06;;;;;;;13.07;4.43;;;;;;;28.34;47.28;102032.94;5230607;28;20516;-78
2023/10/07 10:18:35;;;;;;;9.13;4.60;;;;;;;27.70;46.16;102075.34;5230710;28;20033;-78
2023/10/07 10:21:12;;;;;;;10.15;4.18;;;;;;;27.73;46.32;102091.97;5230198;28;20404;-78
2023/10/07 10:23:44;;;;;;;11.10;4.68;;;;;;;27.22;46.99;102071.66;5230257;28;20079;-78
2023/10/07 10:26:22;;;;;;;8.88;3.25;;;;;;;27.35;48.48;102089.91;5230321;28;20100;-78
2023/10/07 10:29:04;;;;;;;9.55;4.07;;;;;;;26.62;48.20;102063.88;5230179;28;20511;-78
2023/10/07 10:31:36;;;;;;;10.50;4.25;;;;;;;26.65;48.46;102079.63;5230022;28;20099;-79
2023/10/07 10:34:14;;;;;;;7.57;4.15;;;;;;;26.83;49.07;102097.41;5230759;28;20112;-78
2023/10/07 10:36:49;;;;;;;7.47;3.60;;;;;;;26.75;48.95;102124.31;5233714;28;20025;-79
2023/10/07 10:39:25;;;;;;;11.00;4.10;;;;;;;26.24;50.66;102056.31;5230370;28;20030;-79
2023/10/07 10:42:13;;;;;;;10.73;4.45;;;;;;;26.60;51.58;102116.09;5216099;28;20033;-79
2023/10/07 10:44:48;;;;;;;10.13;4.47;;;;;;;26.49;50.27;102096.63;5230655;28;20075;-79
2023/10/07 10:47:21;;;;;;;8.18;3.70;;;;;;;25.48;54.11;102081.28;5230654;28;20025;-79
2023/10/07 10:49:55;;;;;;;7.32;4.50;;;;;;;25.64;53.19;102079.66;5230503;28;20583;-79
2023/10/07 10:52:27;;;;;;;11.73;4.53;;;;;;;25.56;54.53;102101.94;5229052;28;20057;-78
2023/10/07 10:55:00;;;;;;;9.48;4.10;;;;;;;25.75;53.34;102060.59;5230662;28;20097;-77
2023/10/07 10:57:31;;;;;;;7.40;3.90;;;;;;;26.00;52.78;102084.81;5212181;28;20029;-77
2023/10/07 11:00:11;;;;;;;10.48;4.20;;;;;;;25.83;55.07;102092.81;5230059;28;20423;-78
2023/10/07 11:02:42;;;;;;;9.63;4.00;;;;;;;26.03;52.38;102089.84;5212774;28;20424;-78
2023/10/07 11:05:15;;;;;;;10.98;5.40;;;;;;;25.97;52.94;102102.06;5211225;28;20025;-79
2023/10/07 11:07:49;;;;;;;14.68;4.65;;;;;;;25.89;52.52;102091.31;5230707;28;20029;-77
2023/10/07 11:10:22;;;;;;;9.52;4.00;;;;;;;25.90;52.17;102089.50;5229282;28;20764;-77
2023/10/07 11:12:56;;;;;;;10.53;4.07;;;;;;;25.68;52.58;102079.19;5230217;28;20351;-77
2023/10/07 11:15:29;;;;;;;11.88;4.15;;;;;;;25.87;52.04;102081.78;5225541;28;20076;-78
2023/10/07 11:18:12;;;;;;;13.07;4.30;;;;;;;25.82;51.51;102091.16;5228761;28;20041;-77
2023/10/07 11:20:43;;;;;;;11.25;5.18;;;;;;;25.74;51.65;102088.44;5229287;28;20025;-77
2023/10/07 11:23:15;;;;;;;7.25;4.43;;;;;;;25.57;53.21;102090.22;5229825;28;20511;-77
2023/10/07 11:25:47;;;;;;;7.70;4.38;;;;;;;25.49;53.01;102053.47;5211921;28;20022;-78
2023/10/07 11:28:22;;;;;;;11.82;4.80;;;;;;;25.65;54.29;102078.69;5229191;28;20075;-78
2023/10/07 11:30:55;;;;;;;12.43;4.93;;;;;;;25.68;54.03;102075.66;5229500;28;20767;-77
2023/10/07 11:33:26;;;;;;;9.48;4.15;;;;;;;25.25;57.40;102050.53;5229169;28;20021;-77
2023/10/07 11:35:59;;;;;;;9.45;4.63;;;;;;;25.60;52.56;102063.91;5229651;28;20044;-78
2023/10/07 11:38:31;;;;;;;12.60;4.47;;;;;;;25.50;53.67;102036.38;5211962;28;20038;-78
2023/10/07 11:41:06;;;;;;;13.40;4.25;;;;;;;25.79;53.23;102070.03;5230393;28;20026;-77
2023/10/07 11:43:46;;;;;;;9.50;4.72;;;;;;;25.48;55.20;102079.44;5232703;28;20044;-77
2023/10/07 11:46:19;;;;;;;11.63;4.60;;;;;;;25.14;56.54;102066.88;5217888;28;20447;-78
2023/10/07 11:48:51;;;;;;;14.45;4.60;;;;;;;25.22;55.17;102058.06;5234230;28;20457;-78
2023/10/07 11:51:27;;;;;;;9.20;3.97;;;;;;;25.66;54.23;102069.66;5233853;28;20049;-78
2023/10/07 11:54:01;;;;;;;6.85;3.55;;;;;;;25.70;54.50;102087.94;5232815;28;20017;-81
2023/10/07 11:56:32;;;;;;;12.02;4.57;;;;;;;25.30;57.55;102082.22;5232042;28;20029;-78
2023/10/07 11:59:05;;;;;;;7.53;4.25;;;;;;;25.56;54.94;102075.94;5232478;28;20060;-77
2023/10/07 12:01:38;;;;;;;8.23;4.60;;;;;;;25.57;54.29;102066.88;5232655;28;20505;-77
2023/10/07 12:04:09;;;;;;;9.68;4.20;;;;;;;25.65;54.70;102074.16;5232389;28;20033;-77
2023/10/07 12:06:45;;;;;;;8.77;3.90;;;;;;;25.52;54.59;102053.13;5232416;28;20026;-77
2023/10/07 12:09:21;;;;;;;11.27;4.32;;;;;;;25.36;58.71;102076.19;5233354;28;20592;-77
2023/10/07 12:11:53;;;;;;;10.93;4.10;;;;;;;25.48;58.12;102083.97;5230968;28;20049;-77
2023/10/07 12:14:27;;;;;;;11.45;4.38;;;;;;;25.72;55.26;102095.81;5233054;28;20048;-78
2023/10/07 12:16:58;;;;;;;8.13;4.05;;;;;;;25.70;53.46;102076.34;5232427;28;20029;-77
2023/10/07 12:19:30;;;;;;;8.68;4.65;;;;;;;25.64;53.64;102075.16;5231470;28;20375;-77
2023/10/07 12:22:05;;;;;;;9.18;4.55;;;;;;;25.44;56.00;102090.66;5230399;28;20021;-77
2023/10/07 12:24:37;;;;;;;8.73;4.97;;;;;;;25.42;53.50;102057.78;5229366;28;20380;-77
2023/10/07 12:27:10;;;;;;;9.70;4.53;;;;;;;25.56;53.09;102081.31;5231750;28;20032;-76